Time;durP1;ratioP1;P1;durP2;ratioP2;P2;SDS_P1;SDS_P2;PMS_P1;PMS_P2;Temp;Humidity;BMP_temperature;BMP_pressure;BME280_temperature;BME280_humidity;BME280_pressure;Samples;Min_cycle;Max_cycle;Signal;HPM_P1;HPM_P2
2023/08/01 00:01:32;;;;;;;12.52;6.32;;;14.30;99.90;;;;;;4974700;28;20538;-88
2023/08/01 00:03:58;;;;;;;10.65;6.30;;;14.30;99.90;;;;;;4987502;28;20034;-91
2023/08/01 00:06:24;;;;;;;12.18;5.30;;;14.30;99.90;;;;;;4973778;28;20102;-88
2023/08/01 00:08:51;;;;;;;13.45;5.03;;;14.40;99.90;;;;;;4973813;28;20022;-89
2023/08/01 00:11:16;;;;;;;17.80;4.63;;;14.40;99.90;;;;;;4971139;28;20042;-90
2023/08/01 00:13:43;;;;;;;12.90;5.25;;;14.50;99.90;;;;;;4976609;28;20023;-89
2023/08/01 00:16:09;;;;;;;10.85;5.53;;;14.40;99.90;;;;;;4973121;28;20011;-90
2023/08/01 00:18:35;;;;;;;14.50;5.75;;;14.50;99.90;;;;;;4982146;28;20102;-88
2023/08/01 00:21:00;;;;;;;10.43;4.82;;;14.50;99.90;;;;;;4975461;28;20106;-87
2023/08/01 00:23:26;;;;;;;14.88;6.05;;;14.40;99.90;;;;;;4975572;28;20023;-91
2023/08/01 00:25:52;;;;;;;10.75;5.18;;;14.50;99.90;;;;;;4976781;28;20665;-88
2023/08/01 00:28:18;;;;;;;9.23;5.43;;;14.40;99.90;;;;;;4975703;28;20030;-88
2023/08/01 00:30:44;;;;;;;15.75;5.20;;;14.40;99.90;;;;;;4972948;28;20136;-90
2023/08/01 00:33:09;;;;;;;9.82;4.60;;;14.40;99.90;;;;;;4980652;28;20127;-87
2023/08/01 00:35:35;;;;;;;18.90;5.38;;;14.40;99.90;;;;;;4969614;28;20117;-89
2023/08/01 00:38:01;;;;;;;12.05;5.35;;;14.40;99.90;;;;;;4975402;28;20041;-90
2023/08/01 00:40:31;;;;;;;9.80;5.07;;;14.40;99.90;;;;;;4982268;28;20030;-90
2023/08/01 00:42:56;;;;;;;14.02;6.18;;;14.40;99.90;;;;;;4977751;28;20049;-88
2023/08/01 00:45:24;;;;;;;8.60;5.00;;;14.40;99.90;;;;;;4975426;28;20471;-89
2023/08/01 00:47:51;;;;;;;17.30;6.93;;;14.40;99.90;;;;;;4980880;28;20022;-87
2023/08/01 00:50:20;;;;;;;10.98;5.53;;;14.40;99.90;;;;;;4985571;28;20050;-91
2023/08/01 00:52:50;;;;;;;16.00;5.80;;;14.40;99.90;;;;;;4977972;28;20122;-90
2023/08/01 00:55:16;;;;;;;13.25;5.60;;;14.50;99.90;;;;;;4973527;23;20134;-82
2023/08/01 00:57:42;;;;;;;14.13;5.70;;;14.50;99.90;;;;;;4928590;29;20098;-84
2023/08/01 01:00:09;;;;;;;9.90;5.70;;;14.50;99.90;;;;;;4932416;29;20392;-84
2023/08/01 01:02:36;;;;;;;17.48;6.35;;;14.50;99.90;;;;;;4930687;29;20020;-84
2023/08/01 01:05:02;;;;;;;13.07;5.68;;;14.50;99.90;;;;;;4928176;29;20024;-85
2023/08/01 01:07:30;;;;;;;12.73;5.45;;;14.60;99.90;;;;;;4934753;29;20020;-84
2023/08/01 01:09:56;;;;;;;17.25;5.97;;;14.60;99.90;;;;;;4934273;29;20505;-82
2023/08/01 01:12:21;;;;;;;15.65;6.45;;;14.60;99.90;;;;;;4935072;29;20035;-84
2023/08/01 01:14:47;;;;;;;18.08;6.55;;;14.60;99.90;;;;;;4931408;29;20032;-83
2023/08/01 01:17:14;;;;;;;15.82;5.68;;;14.60;99.90;;;;;;4929513;29;20093;-84
2023/08/01 01:19:39;;;;;;;14.75;5.55;;;14.60;99.90;;;;;;4934690;29;20024;-83
2023/08/01 01:22:08;;;;;;;14.85;5.63;;;14.70;99.90;;;;;;4931217;29;20412;-84
2023/08/01 01:24:35;;;;;;;15.93;5.47;;;14.70;99.90;;;;;;4931274;29;20023;-85
2023/08/01 01:27:03;;;;;;;14.90;5.20;;;14.80;99.90;;;;;;4934964;29;20024;-83
2023/08/01 01:29:30;;;;;;;20.30;5.40;;;14.80;99.90;;;;;;4927978;29;20536;-82
2023/08/01 01:31:57;;;;;;;13.45;5.03;;;14.90;99.90;;;;;;4934331;29;20047;-83
2023/08/01 01:34:23;;;;;;;14.50;5.45;;;14.90;99.90;;;;;;4934412;29;20019;-82
2023/08/01 01:36:49;;;;;;;15.50;5.30;;;14.80;99.90;;;;;;4934477;29;20059;-83
2023/08/01 01:39:14;;;;;;;6.85;4.30;;;14.90;99.90;;;;;;4932705;29;20473;-83
2023/08/01 01:41:40;;;;;;;13.27;4.80;;;14.90;99.90;;;;;;4927445;29;20461;-82
2023/08/01 01:44:06;;;;;;;9.43;4.50;;;14.90;99.90;;;;;;4934292;29;20118;-83
2023/08/01 01:46:31;;;;;;;14.40;5.20;;;14.90;99.90;;;;;;4934152;29;20380;-83
2023/08/01 01:49:00;;;;;;;11.60;4.82;;;14.90;99.90;;;;;;4927380;29;20496;-82
2023/08/01 01:51:29;;;;;;;12.68;4.75;;;14.90;99.90;;;;;;4934263;29;20028;-83
2023/08/01 01:56:29;;;;;;;11.75;4.25;;;14.80;99.90;;;;;;4979683;28;20284;-89
2023/08/01 01:58:55;;;;;;;17.50;4.60;;;14.90;99.90;;;;;;4979395;28;20030;-88
2023/08/01 02:01:21;;;;;;;19.25;5.05;;;14.80;99.90;;;;;;4986482;28;20026;-90
2023/08/01 02:03:46;;;;;;;15.70;5.60;;;14.90;99.90;;;;;;4982076;28;20018;-90
2023/08/01 02:06:12;;;;;;;13.07;5.43;;;14.90;99.90;;;;;;4961740;28;20596;-88
2023/08/01 02:08:37;;;;;;;15.45;5.45;;;14.90;99.90;;;;;;4959863;28;20054;-90
2023/08/01 02:11:03;;;;;;;15.75;4.93;;;15.00;99.90;;;;;;4962116;28;20059;-89
2023/08/01 02:13:30;;;;;;;16.70;5.13;;;14.90;99.90;;;;;;4961711;28;20383;-87
2023/08/01 02:15:56;;;;;;;14.40;5.10;;;15.00;99.90;;;;;;4965938;28;20031;-90
2023/08/01 02:18:21;;;;;;;14.68;4.53;;;14.90;99.90;;;;;;4965986;28;20025;-91
2023/08/01 02:20:47;;;;;;;24.73;5.82;;;15.00;99.90;;;;;;4964760;28;20022;-88
2023/08/01 02:23:12;;;;;;;21.10;5.15;;;15.00;99.90;;;;;;4961448;28;20030;-91
2023/08/01 02:25:40;;;;;;;11.38;4.60;;;15.00;99.90;;;;;;4959487;28;20015;-89
2023/08/01 02:28:06;;;;;;;12.82;4.95;;;15.00;99.90;;;;;;4962123;28;20030;-91
2023/08/01 02:30:31;;;;;;;14.90;6.75;;;15.00;99.90;;;;;;4965800;28;20023;-90
2023/08/01 02:32:57;;;;;;;14.20;4.38;;;15.00;99.90;;;;;;4962746;28;20062;-91
2023/08/01 02:35:22;;;;;;;12.18;5.32;;;15.10;99.90;;;;;;4961733;28;20783;-90
2023/08/01 02:37:48;;;;;;;12.68;3.50;;;15.10;99.90;;;;;;4953702;28;20030;-88
2023/08/01 02:40:14;;;;;;;14.02;4.20;;;15.10;99.90;;;;;;4964336;28;20023;-87
2023/08/01 02:42:39;;;;;;;13.88;4.32;;;15.10;99.90;;;;;;4959115;28;20480;-90
2023/08/01 02:45:05;;;;;;;14.70;4.57;;;15.10;99.90;;;;;;4966985;28;20113;-89
2023/08/01 02:47:31;;;;;;;12.00;4.15;;;15.10;99.90;;;;;;4962345;28;20034;-89
2023/08/01 02:49:57;;;;;;;17.13;4.72;;;15.10;99.90;;;;;;4961583;28;20031;-88
2023/08/01 02:52:22;;;;;;;17.27;4.47;;;15.10;99.90;;;;;;4953066;28;20070;-88
2023/08/01 02:54:48;;;;;;;6.82;4.18;;;15.10;99.90;;;;;;4973963;23;20048;-82
2023/08/01 02:57:14;;;;;;;10.23;3.63;;;15.00;99.90;;;;;;4947104;28;20063;-82
2023/08/01 02:59:39;;;;;;;10.95;3.75;;;15.00;99.90;;;;;;4932985;29;20458;-84
2023/08/01 03:02:05;;;;;;;12.80;4.03;;;15.00;99.90;;;;;;4932473;29;20028;-82
2023/08/01 03:04:31;;;;;;;17.90;4.35;;;15.00;99.90;;;;;;4931700;29;20405;-82
2023/08/01 03:06:56;;;;;;;14.45;3.60;;;15.00;99.90;;;;;;4933056;29;20028;-83
2023/08/01 03:09:22;;;;;;;15.63;4.18;;;15.00;99.90;;;;;;4932398;29;20026;-83
2023/08/01 03:11:48;;;;;;;12.35;4.10;;;15.00;99.90;;;;;;4932116;29;20489;-83
2023/08/01 03:14:13;;;;;;;14.85;3.80;;;15.00;99.90;;;;;;4932757;29;20111;-83
2023/08/01 03:16:39;;;;;;;13.35;4.07;;;15.00;99.90;;;;;;4931169;29;20047;-84
2023/08/01 03:19:05;;;;;;;11.02;4.05;;;15.10;99.90;;;;;;4932550;29;20169;-82
2023/08/01 03:21:34;;;;;;;18.60;4.15;;;15.10;99.90;;;;;;4932975;29;20070;-84
2023/08/01 03:24:00;;;;;;;17.20;4.80;;;15.10;99.90;;;;;;4931110;29;20534;-83
2023/08/01 03:26:28;;;;;;;10.50;3.58;;;15.10;99.90;;;;;;4932299;29;20031;-82
2023/08/01 03:28:55;;;;;;;20.65;4.80;;;15.10;99.90;;;;;;4932482;28;20063;-84
2023/08/01 03:31:22;;;;;;;17.00;4.22;;;15.10;99.90;;;;;;4932623;29;20480;-83
2023/08/01 03:33:47;;;;;;;12.25;3.85;;;15.10;99.90;;;;;;4931408;29;20046;-83
2023/08/01 03:36:13;;;;;;;14.05;4.20;;;15.10;99.90;;;;;;4932916;29;20484;-84
2023/08/01 03:38:39;;;;;;;21.88;4.90;;;15.10;99.90;;;;;;4932026;29;20090;-83
2023/08/01 03:41:05;;;;;;;10.35;3.40;;;15.10;99.90;;;;;;4931894;29;20020;-84
2023/08/01 03:43:30;;;;;;;11.98;3.83;;;15.10;99.90;;;;;;4935918;29;20030;-82
2023/08/01 03:45:56;;;;;;;19.08;4.10;;;15.00;99.90;;;;;;4935428;29;20158;-82
2023/08/01 03:48:22;;;;;;;20.20;4.43;;;15.10;99.90;;;;;;4935313;29;20054;-82
2023/08/01 03:50:47;;;;;;;14.80;3.90;;;15.00;99.90;;;;;;4935344;29;20031;-83
2023/08/01 03:53:13;;;;;;;18.60;3.90;;;15.00;99.90;;;;;;4935701;28;20031;-83
2023/08/01 03:55:39;;;;;;;11.43;3.90;;;15.00;99.90;;;;;;4944658;23;20417;-89
2023/08/01 03:58:05;;;;;;;21.50;5.60;;;15.00;99.90;;;;;;4919458;29;20107;-90
2023/08/01 04:00:32;;;;;;;9.43;3.47;;;15.00;99.90;;;;;;4918926;29;20068;-89
2023/08/01 04:02:59;;;;;;;16.02;4.32;;;14.90;99.90;;;;;;4926507;29;20111;-90
2023/08/01 04:05:24;;;;;;;15.57;4.53;;;14.90;99.90;;;;;;4919209;29;20028;-88
2023/08/01 04:07:50;;;;;;;13.18;4.07;;;14.80;99.90;;;;;;4918835;29;20020;-90
2023/08/01 04:10:16;;;;;;;12.60;3.55;;;14.90;99.90;;;;;;4918756;29;20444;-90
2023/08/01 04:12:42;;;;;;;13.60;4.07;;;14.80;99.90;;;;;;4919507;29;20079;-89
2023/08/01 04:15:09;;;;;;;11.57;3.90;;;14.80;99.90;;;;;;4919140;29;20488;-92
2023/08/01 04:17:34;;;;;;;13.63;3.75;;;14.80;99.90;;;;;;4919503;29;20051;-89
2023/08/01 04:20:00;;;;;;;7.43;3.65;;;14.80;99.90;;;;;;4919384;29;20055;-87
2023/08/01 04:22:25;;;;;;;17.23;4.90;;;14.80;99.90;;;;;;4918672;29;20453;-90
2023/08/01 04:24:51;;;;;;;14.70;3.80;;;14.90;99.90;;;;;;4918659;29;20482;-88
2023/08/01 04:27:17;;;;;;;8.95;2.65;;;14.90;99.90;;;;;;4919285;29;20042;-90
2023/08/01 04:29:43;;;;;;;18.35;3.35;;;14.90;99.90;;;;;;4918909;29;20016;-91
2023/08/01 04:32:08;;;;;;;5.22;2.85;;;14.90;99.90;;;;;;4917572;29;20028;-88
2023/08/01 04:34:34;;;;;;;13.43;4.60;;;15.00;99.90;;;;;;4924192;29;20059;-89
2023/08/01 04:36:59;;;;;;;12.05;3.60;;;14.90;99.90;;;;;;4918615;29;20087;-88
2023/08/01 04:39:25;;;;;;;16.77;4.40;;;14.90;99.90;;;;;;4918359;29;20425;-89
2023/08/01 04:41:51;;;;;;;9.75;3.13;;;14.90;99.90;;;;;;4918903;29;20054;-90
2023/08/01 04:44:16;;;;;;;9.98;3.17;;;14.90;99.90;;;;;;4918425;29;20056;-89
2023/08/01 04:46:42;;;;;;;8.95;3.42;;;14.90;99.90;;;;;;4918575;29;20055;-88
2023/08/01 04:49:07;;;;;;;11.80;3.65;;;14.80;99.90;;;;;;4918230;29;20055;-88
2023/08/01 04:51:33;;;;;;;10.13;3.33;;;14.80;99.90;;;;;;4917828;29;20044;-89
2023/08/01 04:56:39;;;;;;;10.60;3.50;;;14.60;99.90;;;;;;4971203;28;20062;-82
2023/08/01 04:59:05;;;;;;;8.50;3.10;;;14.70;99.90;;;;;;4973716;28;20049;-81
2023/08/01 05:01:31;;;;;;;15.07;2.85;;;14.70;99.90;;;;;;4972447;28;20023;-81
2023/08/01 05:03:57;;;;;;;7.35;3.22;;;14.60;99.90;;;;;;4978368;28;20025;-82
2023/08/01 05:06:22;;;;;;;16.73;3.70;;;14.60;99.90;;;;;;4977277;28;20065;-86
2023/08/01 05:08:48;;;;;;;16.23;5.13;;;14.50;99.90;;;;;;4985601;28;20102;-84
2023/08/01 05:11:14;;;;;;;13.27;3.25;;;14.50;99.90;;;;;;4980444;28;20063;-86
2023/08/01 05:13:39;;;;;;;11.73;3.70;;;14.60;99.90;;;;;;4980864;28;20030;-86
2023/08/01 05:16:05;;;;;;;10.70;4.70;;;14.70;99.90;;;;;;4972898;28;20392;-84
2023/08/01 05:18:31;;;;;;;12.52;3.63;;;14.70;99.90;;;;;;4973013;28;20241;-87
2023/08/01 05:20:56;;;;;;;12.10;3.47;;;14.80;99.90;;;;;;4980749;28;20093;-85
2023/08/01 05:23:22;;;;;;;14.68;3.83;;;14.90;99.90;;;;;;4973522;28;20057;-85
2023/08/01 05:25:47;;;;;;;15.02;4.97;;;14.90;99.90;;;;;;4982607;28;20105;-84
2023/08/01 05:28:14;;;;;;;13.13;4.07;;;15.00;99.90;;;;;;4982415;28;20042;-85
2023/08/01 05:30:40;;;;;;;11.82;3.65;;;15.00;99.90;;;;;;4973687;28;20015;-85
2023/08/01 05:33:06;;;;;;;17.08;3.47;;;15.10;99.90;;;;;;4980026;28;20034;-84
2023/08/01 05:35:31;;;;;;;14.55;3.45;;;15.10;99.90;;;;;;4974600;28;20023;-84
2023/08/01 05:37:57;;;;;;;12.13;3.75;;;15.10;99.90;;;;;;4976493;28;20459;-84
2023/08/01 05:40:23;;;;;;;19.35;4.50;;;15.10;99.90;;;;;;4970087;28;20055;-84
2023/08/01 05:42:48;;;;;;;11.80;3.72;;;15.10;99.90;;;;;;4973938;28;20038;-88
2023/08/01 05:45:14;;;;;;;8.30;3.72;;;15.00;99.90;;;;;;4979831;28;20019;-84
2023/08/01 05:47:40;;;;;;;14.02;3.70;;;15.00;99.90;;;;;;4979088;28;20030;-84
2023/08/01 05:50:07;;;;;;;12.80;3.53;;;15.00;99.90;;;;;;4973404;28;20498;-87
2023/08/01 05:52:33;;;;;;;9.65;3.85;;;15.00;99.90;;;;;;4977476;28;20030;-85
2023/08/01 05:54:59;;;;;;;11.85;3.72;;;15.00;99.90;;;;;;4993710;23;20043;-92
2023/08/01 05:57:25;;;;;;;11.07;3.60;;;15.10;99.90;;;;;;4955936;28;20106;-89
2023/08/01 05:59:50;;;;;;;12.27;3.53;;;15.20;99.90;;;;;;4970395;28;20023;-89
2023/08/01 06:02:16;;;;;;;13.80;3.53;;;15.40;99.90;;;;;;4960191;28;20054;-86
2023/08/01 06:04:42;;;;;;;14.25;4.30;;;15.50;99.90;;;;;;4978825;28;20128;-88
2023/08/01 06:07:07;;;;;;;12.90;3.47;;;15.60;99.90;;;;;;4963953;28;20073;-86
2023/08/01 06:09:33;;;;;;;11.60;3.67;;;15.60;99.90;;;;;;4959250;28;20031;-89
2023/08/01 06:11:59;;;;;;;10.98;3.55;;;15.60;99.90;;;;;;4960703;28;20079;-87
2023/08/01 06:14:25;;;;;;;8.35;3.42;;;15.70;99.90;;;;;;4952808;28;20023;-89
2023/08/01 06:16:50;;;;;;;15.30;4.60;;;15.70;99.90;;;;;;4952894;28;20392;-87
2023/08/01 06:19:16;;;;;;;17.77;3.70;;;15.80;99.90;;;;;;4954136;28;20030;-84
2023/08/01 06:21:42;;;;;;;13.18;3.25;;;16.00;99.90;;;;;;4954198;28;20023;-87
2023/08/01 06:24:08;;;;;;;7.03;3.17;;;16.10;99.90;;;;;;4953912;28;20118;-87
2023/08/01 06:26:34;;;;;;;9.63;3.13;;;16.20;99.90;;;;;;4960362;28;20030;-84
2023/08/01 06:29:00;;;;;;;14.20;3.42;;;16.30;99.90;;;;;;4961509;28;20019;-87
2023/08/01 06:31:25;;;;;;;10.38;2.70;;;16.20;99.90;;;;;;4958768;28;20047;-86
2023/08/01 06:33:51;;;;;;;12.05;3.17;;;16.20;99.90;;;;;;4960397;28;20049;-89
2023/08/01 06:36:17;;;;;;;12.57;2.63;;;16.30;99.90;;;;;;4953072;28;20082;-86
2023/08/01 06:38:43;;;;;;;9.07;2.92;;;16.30;99.90;;;;;;4953105;28;20019;-85
2023/08/01 06:41:09;;;;;;;12.70;2.85;;;16.20;99.90;;;;;;4952811;28;20115;-83
2023/08/01 06:43:37;;;;;;;15.90;2.95;;;16.30;99.90;;;;;;4960320;28;20519;-88
2023/08/01 06:46:03;;;;;;;8.88;2.75;;;16.30;99.90;;;;;;4960361;28;20020;-88
2023/08/01 06:48:29;;;;;;;9.40;2.88;;;16.40;99.90;;;;;;4965014;28;20152;-86
2023/08/01 06:50:54;;;;;;;6.55;2.30;;;16.60;99.90;;;;;;4958236;28;20488;-89
2023/08/01 06:53:21;;;;;;;6.22;2.40;;;16.70;99.90;;;;;;4948085;28;20042;-86
2023/08/01 06:55:46;;;;;;;10.40;2.45;;;16.90;99.90;;;;;;4972963;23;20043;-83
2023/08/01 06:58:12;;;;;;;11.65;2.42;;;17.00;99.90;;;;;;4972120;28;20031;-83
2023/08/01 07:00:38;;;;;;;11.82;2.60;;;17.20;99.90;;;;;;4971856;28;20034;-82
2023/08/01 07:03:03;;;;;;;9.57;2.70;;;17.30;99.90;;;;;;4974249;28;20030;-83
2023/08/01 07:05:29;;;;;;;9.32;2.35;;;17.40;99.90;;;;;;4960060;28;20034;-83
2023/08/01 07:07:55;;;;;;;11.52;2.42;;;17.50;99.90;;;;;;4953282;28;20024;-82
2023/08/01 07:10:20;;;;;;;11.75;3.42;;;17.50;99.90;;;;;;4952399;28;20027;-83
2023/08/01 07:12:46;;;;;;;7.45;2.13;;;17.50;99.90;;;;;;4952699;28;20093;-84
2023/08/01 07:15:11;;;;;;;9.02;2.85;;;17.50;99.90;;;;;;4950454;28;20047;-83
2023/08/01 07:17:37;;;;;;;9.48;2.60;;;17.50;99.90;;;;;;4956352;28;20055;-83
2023/08/01 07:20:03;;;;;;;8.07;2.05;;;17.50;99.90;;;;;;4955226;28;20437;-82
2023/08/01 07:22:28;;;;;;;6.82;2.10;;;17.50;99.90;;;;;;4956593;28;20106;-84
2023/08/01 07:24:55;;;;;;;10.75;2.35;;;17.60;99.90;;;;;;4955631;28;20033;-83
2023/08/01 07:27:21;;;;;;;5.18;1.98;;;17.70;99.90;;;;;;4956319;28;20106;-82
2023/08/01 07:29:47;;;;;;;6.97;2.30;;;17.80;99.40;;;;;;4955976;28;20361;-83
2023/08/01 07:32:14;;;;;;;10.55;2.03;;;17.80;99.20;;;;;;4954069;28;20278;-83
2023/08/01 07:34:40;;;;;;;8.88;2.38;;;17.90;98.80;;;;;;4962959;28;20027;-83
2023/08/01 07:37:06;;;;;;;7.72;2.30;;;17.90;98.90;;;;;;4956475;28;20420;-83
2023/08/01 07:39:34;;;;;;;6.80;2.30;;;18.10;98.00;;;;;;4954551;28;20454;-83
2023/08/01 07:41:59;;;;;;;5.78;2.17;;;18.30;98.10;;;;;;4955770;28;20019;-84
2023/08/01 07:44:25;;;;;;;11.20;2.42;;;18.40;97.80;;;;;;4955625;28;20038;-82
2023/08/01 07:46:50;;;;;;;7.13;1.83;;;18.40;97.10;;;;;;4956154;28;20027;-82
2023/08/01 07:49:16;;;;;;;8.88;2.03;;;18.50;96.90;;;;;;4955984;28;20023;-84
2023/08/01 07:51:42;;;;;;;6.90;1.63;;;18.60;96.90;;;;;;4954758;28;20046;-84
2023/08/01 07:56:48;;;;;;;7.13;1.80;;;18.70;96.40;;;;;;4916699;29;20143;-87
2023/08/01 07:59:14;;;;;;;7.15;1.80;;;18.80;96.10;;;;;;4933414;29;20404;-88
2023/08/01 08:01:40;;;;;;;9.55;1.70;;;18.90;96.10;;;;;;4918463;29;20020;-87
2023/08/01 08:04:05;;;;;;;6.90;1.75;;;19.00;95.10;;;;;;4918760;29;20020;-89
2023/08/01 08:06:31;;;;;;;6.35;1.90;;;19.10;95.30;;;;;;4925023;29;20465;-86
2023/08/01 08:08:57;;;;;;;5.60;2.15;;;19.10;95.30;;;;;;4918118;29;20029;-85
2023/08/01 08:11:23;;;;;;;3.47;1.70;;;19.10;94.60;;;;;;4917676;29;20035;-87
2023/08/01 08:13:49;;;;;;;5.85;1.70;;;19.10;94.90;;;;;;4918584;29;20543;-87
2023/08/01 08:16:14;;;;;;;9.02;1.77;;;19.20;94.80;;;;;;4918325;29;20123;-88
2023/08/01 08:18:40;;;;;;;5.65;1.65;;;19.40;94.40;;;;;;4918568;29;20107;-86
2023/08/01 08:21:05;;;;;;;7.90;1.98;;;19.50;94.40;;;;;;4918140;29;20488;-85
2023/08/01 08:23:31;;;;;;;6.43;1.95;;;19.50;94.10;;;;;;4917588;29;20028;-89
2023/08/01 08:25:57;;;;;;;8.30;1.88;;;19.40;94.00;;;;;;4918615;29;20482;-86
2023/08/01 08:28:32;;;;;;;5.43;2.42;;;19.40;94.30;;;;;;4917865;29;20457;-88
2023/08/01 08:30:58;;;;;;;6.03;1.98;;;19.20;93.60;;;;;;4925216;29;20164;-88
2023/08/01 08:33:24;;;;;;;4.38;1.30;;;19.00;93.60;;;;;;4918097;29;20394;-86
2023/08/01 08:35:50;;;;;;;5.50;1.60;;;18.90;94.50;;;;;;4917518;29;20050;-87
2023/08/01 08:38:17;;;;;;;4.40;2.20;;;18.80;96.60;;;;;;4917623;29;20470;-87
2023/08/01 08:41:07;;;;;;;7.07;2.25;;;18.70;95.90;;;;;;4917532;29;20032;-88
2023/08/01 08:43:34;;;;;;;6.38;1.63;;;18.70;95.80;;;;;;4917778;29;20024;-86
2023/08/01 08:46:01;;;;;;;9.90;1.90;;;19.00;94.70;;;;;;4917800;29;20023;-85
2023/08/01 08:48:28;;;;;;;6.88;1.42;;;19.50;94.80;;;;;;4916853;29;20027;-86
2023/08/01 08:50:57;;;;;;;6.20;1.48;;;20.30;92.10;;;;;;4917428;29;20024;-87
2023/08/01 08:53:24;;;;;;;7.00;1.55;;;20.60;91.60;;;;;;4918403;29;20036;-88
2023/08/01 08:55:50;;;;;;;4.70;1.42;;;20.90;90.10;;;;;;4942234;23;20533;-83
2023/08/01 08:58:16;;;;;;;7.63;1.88;;;21.00;89.70;;;;;;4898981;29;20024;-84
2023/08/01 09:00:43;;;;;;;6.25;1.88;;;20.90;88.50;;;;;;4897769;29;20021;-83
2023/08/01 09:03:09;;;;;;;4.40;1.45;;;20.80;87.80;;;;;;4897683;29;20478;-84
2023/08/01 09:05:50;;;;;;;4.50;1.50;;;21.00;89.80;;;;;;4901355;29;20020;-83
2023/08/01 09:08:19;;;;;;;5.57;1.60;;;21.40;90.30;;;;;;4899114;29;20032;-83
2023/08/01 09:10:44;;;;;;;7.63;1.58;;;21.70;87.00;;;;;;4897148;29;20029;-84
2023/08/01 09:13:10;;;;;;;6.97;2.00;;;21.70;86.80;;;;;;4897492;29;20493;-84
2023/08/01 09:15:37;;;;;;;10.50;1.85;;;21.40;87.90;;;;;;4897600;29;20623;-84
2023/08/01 09:18:07;;;;;;;10.95;1.98;;;20.90;88.10;;;;;;4897779;29;20378;-83
2023/08/01 09:20:46;;;;;;;3.55;1.65;;;20.40;88.70;;;;;;4897834;29;20020;-82
2023/08/01 09:23:13;;;;;;;4.82;1.98;;;20.10;90.70;;;;;;4892791;29;20080;-84
2023/08/01 09:25:40;;;;;;;6.85;2.03;;;20.10;91.40;;;;;;4896990;29;20439;-83
2023/08/01 09:28:22;;;;;;;5.53;1.73;;;20.00;91.60;;;;;;4897700;29;20060;-84
2023/08/01 09:30:48;;;;;;;5.07;1.55;;;20.00;92.00;;;;;;4903960;29;20110;-83
2023/08/01 09:33:15;;;;;;;6.75;1.90;;;20.10;91.30;;;;;;4897030;29;20040;-83
2023/08/01 09:35:44;;;;;;;9.57;1.75;;;20.20;91.00;;;;;;4903722;29;20044;-83
2023/08/01 09:38:10;;;;;;;8.73;1.85;;;20.30;90.90;;;;;;4896509;29;20365;-84
2023/08/01 09:40:37;;;;;;;7.18;1.55;;;20.60;91.00;;;;;;4898132;29;20028;-83
2023/08/01 09:43:02;;;;;;;5.10;1.80;;;20.80;90.90;;;;;;4896837;29;20025;-83
2023/08/01 09:45:28;;;;;;;9.80;2.50;;;21.10;90.90;;;;;;4897285;29;20381;-83
2023/08/01 09:47:54;;;;;;;6.78;1.73;;;21.40;87.40;;;;;;4896108;29;20461;-83
2023/08/01 09:50:22;;;;;;;5.90;1.75;;;21.30;88.60;;;;;;4902841;29;20024;-84
2023/08/01 09:52:52;;;;;;;6.75;1.67;;;21.10;89.30;;;;;;4897781;29;20043;-84
2023/08/01 09:55:32;;;;;;;7.72;1.65;;;21.00;88.40;;;;;;4940834;23;20039;-87
2023/08/01 09:57:59;;;;;;;5.53;1.50;;;21.10;88.70;;;;;;4974277;28;20395;-87
2023/08/01 10:00:29;;;;;;;7.82;1.80;;;21.10;88.00;;;;;;4987044;28;20025;-91
2023/08/01 10:03:00;;;;;;;8.70;2.50;;;21.20;86.30;;;;;;4981225;28;20070;-91
2023/08/01 10:05:31;;;;;;;7.82;2.03;;;21.10;87.00;;;;;;4983542;28;20054;-89
2023/08/01 10:08:00;;;;;;;5.15;1.85;;;21.40;86.20;;;;;;4977514;28;20022;-91
2023/08/01 10:10:27;;;;;;;8.25;1.73;;;21.90;83.50;;;;;;4974446;28;20026;-88
2023/08/01 10:12:56;;;;;;;3.55;1.00;;;22.20;81.70;;;;;;4980232;28;20126;-88
2023/08/01 10:15:23;;;;;;;4.78;1.80;;;22.50;77.20;;;;;;4987447;28;20034;-87
2023/08/01 10:17:48;;;;;;;4.60;1.75;;;22.70;77.90;;;;;;4973868;28;20033;-88
2023/08/01 10:20:15;;;;;;;4.75;1.75;;;23.60;76.90;;;;;;4974183;28;20027;-87
2023/08/01 10:22:41;;;;;;;4.95;1.55;;;25.10;72.00;;;;;;4973932;28;20081;-86
2023/08/01 10:25:09;;;;;;;4.70;1.70;;;26.20;68.80;;;;;;4973453;28;20460;-90
2023/08/01 10:27:36;;;;;;;5.80;1.42;;;26.80;63.40;;;;;;4973851;28;20019;-88
2023/08/01 10:30:03;;;;;;;5.80;1.38;;;26.50;59.40;;;;;;4980972;28;20098;-87
2023/08/01 10:32:35;;;;;;;5.68;1.70;;;26.20;61.00;;;;;;4973239;28;20058;-88
2023/08/01 10:35:01;;;;;;;6.90;2.08;;;26.00;61.80;;;;;;4973925;28;20069;-87
2023/08/01 10:37:38;;;;;;;4.72;1.70;;;26.80;61.60;;;;;;4973423;28;20476;-90
2023/08/01 10:40:04;;;;;;;5.05;1.80;;;28.00;60.10;;;;;;4972909;28;20022;-87
2023/08/01 10:42:45;;;;;;;3.75;1.48;;;29.00;56.70;;;;;;4970758;28;20522;-88
2023/08/01 10:45:24;;;;;;;6.35;1.70;;;29.70;50.60;;;;;;4974372;28;20015;-88
2023/08/01 10:47:50;;;;;;;6.68;1.90;;;29.10;52.10;;;;;;4984131;28;20022;-88
2023/08/01 10:50:16;;;;;;;4.10;1.15;;;29.20;52.10;;;;;;4974541;28;20022;-86
2023/08/01 10:52:42;;;;;;;3.42;1.42;;;29.60;50.60;;;;;;4977202;28;20054;-87
2023/08/01 10:55:08;;;;;;;5.45;1.40;;;28.80;50.50;;;;;;4975284;23;20087;-85
2023/08/01 10:57:47;;;;;;;4.68;1.60;;;29.50;52.00;;;;;;4898900;29;20025;-83
2023/08/01 11:00:17;;;;;;;8.48;1.70;;;29.10;48.80;;;;;;4899402;29;20024;-84
2023/08/01 11:02:49;;;;;;;12.82;2.00;;;29.20;51.40;;;;;;4899480;29;20025;-87
2023/08/01 11:05:15;;;;;;;7.28;1.70;;;29.10;50.20;;;;;;4899373;29;20024;-84
2023/08/01 11:07:40;;;;;;;6.10;1.98;;;28.80;51.20;;;;;;4899339;29;20073;-85
2023/08/01 11:10:11;;;;;;;2.97;1.23;;;29.00;52.00;;;;;;4898813;29;20029;-86
2023/08/01 11:12:38;;;;;;;5.13;1.77;;;29.50;52.70;;;;;;4899061;29;20094;-83
2023/08/01 11:15:07;;;;;;;5.80;2.00;;;28.60;50.40;;;;;;4899671;29;20056;-85
2023/08/01 11:17:34;;;;;;;4.72;1.55;;;27.30;54.30;;;;;;4893517;29;20028;-86
2023/08/01 11:20:10;;;;;;;7.38;2.17;;;26.20;55.10;;;;;;4899251;29;20025;-85
2023/08/01 11:22:38;;;;;;;9.57;2.17;;;25.30;61.10;;;;;;4899275;29;20040;-84
2023/08/01 11:25:04;;;;;;;9.57;2.30;;;24.60;65.60;;;;;;4899024;29;20080;-86
2023/08/01 11:27:30;;;;;;;15.52;2.55;;;24.10;68.10;;;;;;4892825;29;20029;-85
2023/08/01 11:29:56;;;;;;;8.38;2.25;;;23.40;71.70;;;;;;4899287;29;20021;-85
2023/08/01 11:32:32;;;;;;;8.43;2.45;;;23.40;72.50;;;;;;4898550;29;20052;-84
2023/08/01 11:34:57;;;;;;;9.25;2.47;;;23.30;73.70;;;;;;4898661;29;20028;-88
2023/08/01 11:37:25;;;;;;;13.02;2.40;;;23.00;73.30;;;;;;4898533;29;20043;-84
2023/08/01 11:39:51;;;;;;;4.65;1.67;;;22.50;76.30;;;;;;4898630;29;20035;-86
2023/08/01 11:42:17;;;;;;;9.52;2.15;;;21.90;78.20;;;;;;4898330;29;20381;-83
2023/08/01 11:44:44;;;;;;;6.93;1.92;;;21.40;83.00;;;;;;4898742;29;20367;-85
2023/08/01 11:47:17;;;;;;;9.32;2.08;;;21.40;85.00;;;;;;4898749;29;20044;-86
2023/08/01 11:49:49;;;;;;;7.85;2.25;;;21.90;84.60;;;;;;4895879;29;20032;-86
2023/08/01 11:52:28;;;;;;;6.45;2.10;;;22.10;83.00;;;;;;4898731;29;20048;-86
2023/08/01 11:54:55;;;;;;;7.93;2.13;;;23.00;84.20;;;;;;4921079;23;20061;-87
2023/08/01 11:57:21;;;;;;;7.10;1.95;;;24.20;76.80;;;;;;4963364;28;20027;-85
2023/08/01 11:59:52;;;;;;;7.82;1.80;;;25.50;69.60;;;;;;4957032;28;20027;-86
2023/08/01 12:02:25;;;;;;;8.05;2.17;;;25.40;70.70;;;;;;4959238;28;20038;-86
2023/08/01 12:04:52;;;;;;;5.93;2.10;;;26.60;68.30;;;;;;4952753;28;20028;-89
2023/08/01 12:07:18;;;;;;;4.45;1.38;;;26.30;65.10;;;;;;4956739;28;20047;-88
2023/08/01 12:09:55;;;;;;;5.55;2.10;;;26.20;65.80;;;;;;4955726;28;20043;-88
2023/08/01 12:12:21;;;;;;;7.85;2.33;;;25.70;66.10;;;;;;4956597;28;20028;-88
2023/08/01 12:14:46;;;;;;;13.25;3.03;;;26.10;69.50;;;;;;4956901;28;20027;-89
2023/08/01 12:17:12;;;;;;;11.10;2.42;;;27.30;68.70;;;;;;4955178;28;20158;-87
2023/08/01 12:19:37;;;;;;;15.15;3.53;;;28.10;66.20;;;;;;4955321;28;20015;-88
2023/08/01 12:22:03;;;;;;;12.70;2.83;;;28.40;63.60;;;;;;4957047;28;20614;-88
2023/08/01 12:24:29;;;;;;;11.88;3.28;;;28.90;63.20;;;;;;4956626;28;20484;-88
2023/08/01 12:26:54;;;;;;;7.97;2.80;;;28.40;61.40;;;;;;4956428;28;20026;-88
2023/08/01 12:29:20;;;;;;;13.15;3.67;;;28.20;62.10;;;;;;4955152;28;20024;-89
2023/08/01 12:31:46;;;;;;;14.45;3.40;;;27.00;64.60;;;;;;4955241;28;20043;-87
2023/08/01 12:34:11;;;;;;;16.50;3.75;;;26.60;67.20;;;;;;4955776;28;20111;-87
2023/08/01 12:36:37;;;;;;;12.27;3.05;;;27.60;66.80;;;;;;4954942;28;20106;-86
2023/08/01 12:39:03;;;;;;;12.27;3.75;;;28.10;62.30;;;;;;4956337;28;20055;-87
2023/08/01 12:41:29;;;;;;;13.80;4.85;;;27.30;63.00;;;;;;4956487;28;20073;-90
2023/08/01 12:43:54;;;;;;;12.30;3.30;;;27.50;67.00;;;;;;4956758;28;20027;-89
2023/08/01 12:46:20;;;;;;;19.13;3.65;;;27.20;65.60;;;;;;4956881;28;20029;-89